createdAt,value
2017-11-27T00:00:25.869Z,84.89
2017-11-27T00:01:25.601Z,84.89
2017-11-27T00:02:25.850Z,84.8
2017-11-27T00:03:25.581Z,84.99
2017-11-27T00:04:25.830Z,84.7
2017-11-27T00:05:25.826Z,85.08
2017-11-27T00:06:25.810Z,84.27
2017-11-27T00:07:25.809Z,84.13
2017-11-27T00:08:25.792Z,84.32
2017-11-27T00:09:25.782Z,83.85
2017-11-27T00:10:25.511Z,84.04
2017-11-27T00:11:25.763Z,83.66
2017-11-27T00:12:25.754Z,83.85
2017-11-27T00:13:25.738Z,84.04
2017-11-27T00:14:25.736Z,84.42
2017-11-27T00:15:25.719Z,84.13
2017-11-27T00:16:25.713Z,84.13
2017-11-27T00:17:25.702Z,83.94
2017-11-27T00:18:25.690Z,84.13
2017-11-27T00:19:25.678Z,84.61
2017-11-27T00:20:25.774Z,84.13
2017-11-27T00:21:25.660Z,84.04
2017-11-27T00:22:25.393Z,84.13
2017-11-27T00:23:25.641Z,84.42
2017-11-27T00:24:25.630Z,84.61
2017-11-27T00:25:25.621Z,84.42
2017-11-27T00:26:25.609Z,84.61
2017-11-27T00:27:25.610Z,84.23
2017-11-27T00:28:25.587Z,84.42
2017-11-27T00:29:25.326Z,84.13
2017-11-27T00:30:25.670Z,84.13
2017-11-27T00:31:25.569Z,84.51
2017-11-27T00:32:25.294Z,84.32
2017-11-27T00:33:25.284Z,84.61
2017-11-27T00:34:25.273Z,84.8
2017-11-27T00:35:25.658Z,84.51
2017-11-27T00:36:25.252Z,83.85
2017-11-27T00:37:25.242Z,83.85
2017-11-27T00:38:25.232Z,84.61
2017-11-27T00:39:25.482Z,84.04
2017-11-27T00:40:25.475Z,84.04
2017-11-27T00:41:25.468Z,84.61
2017-11-27T00:42:25.193Z,84.42
2017-11-27T00:43:25.453Z,84.13
2017-11-27T00:44:25.432Z,84.42
2017-11-27T00:45:25.160Z,84.61
2017-11-27T00:46:25.414Z,84.42
2017-11-27T00:47:25.403Z,84.61
2017-11-27T00:48:25.133Z,84.32
2017-11-27T00:49:25.408Z,84.32
2017-11-27T00:50:25.386Z,84.32
2017-11-27T00:51:25.361Z,84.23
2017-11-27T00:52:25.091Z,84.23
2017-11-27T00:53:25.340Z,85.36
2017-11-27T00:54:25.331Z,84.94
2017-11-27T00:55:25.330Z,84.99
2017-11-27T00:56:25.318Z,84.8
2017-11-27T00:57:25.299Z,85.17
2017-11-27T00:58:25.302Z,84.99
2017-11-27T00:59:25.278Z,84.8
2017-11-27T01:00:25.272Z,85.17
2017-11-27T01:01:25.264Z,84.8
2017-11-27T01:02:25.252Z,84.99
2017-11-27T01:03:25.239Z,85.08
2017-11-27T01:04:25.231Z,84.99
2017-11-27T01:05:25.220Z,84.8
2017-11-27T01:06:25.211Z,85.08
2017-11-27T01:07:25.305Z,84.61
2017-11-27T01:08:25.189Z,84.8
2017-11-27T01:09:25.190Z,84.99
2017-11-27T01:10:25.172Z,85.27
2017-11-27T01:11:25.158Z,85.27
2017-11-27T01:12:25.157Z,85.46
2017-11-27T01:13:25.239Z,85.17
2017-11-27T01:14:25.151Z,85.46
2017-11-27T01:15:24.861Z,85.55
2017-11-27T01:16:25.115Z,85.27
2017-11-27T01:17:25.098Z,85.27
2017-11-27T01:18:25.101Z,85.27
2017-11-27T01:19:25.087Z,85.27
2017-11-27T01:20:25.120Z,85.46
2017-11-27T01:21:25.057Z,84.89
2017-11-27T01:22:25.060Z,85.36
2017-11-27T01:23:25.047Z,85.36
2017-11-27T01:24:25.030Z,85.65
2017-11-27T01:25:25.025Z,86.03
2017-11-27T01:26:25.014Z,86.03
2017-11-27T01:27:25.000Z,85.36
2017-11-27T01:28:24.997Z,85.93
2017-11-27T01:29:24.721Z,86.22
2017-11-27T01:30:24.971Z,86.03
2017-11-27T01:31:24.700Z,85.84
2017-11-27T01:32:24.946Z,86.22
2017-11-27T01:33:24.681Z,86.12
2017-11-27T01:34:24.925Z,86.5
2017-11-27T01:35:24.921Z,86.6
2017-11-27T01:36:24.909Z,86.5
2017-11-27T01:37:24.902Z,86.88
2017-11-27T01:38:25.013Z,86.79
2017-11-27T01:39:24.979Z,86.98
2017-11-27T01:40:24.883Z,86.88
2017-11-27T01:41:24.600Z,86.79
2017-11-27T01:42:24.855Z,86.5
2017-11-27T01:43:24.842Z,86.98
2017-11-27T01:44:24.828Z,87.07
2017-11-27T01:45:24.562Z,86.98
2017-11-27T01:46:24.817Z,86.93
2017-11-27T01:47:24.799Z,87.59
2017-11-27T01:48:24.791Z,87.64
2017-11-27T01:49:24.780Z,87.5
2017-11-27T01:50:24.869Z,87.4
2017-11-27T01:51:24.757Z,87.64
2017-11-27T01:52:24.747Z,87.45
2017-11-27T01:53:24.840Z,87.12
2017-11-27T01:54:24.727Z,87.31
2017-11-27T01:55:24.727Z,87.98
2017-11-27T01:56:24.450Z,87.69
2017-11-27T01:57:24.699Z,88.17
2017-11-27T01:58:24.428Z,87.98
2017-11-27T01:59:24.418Z,88.17
2017-11-27T02:00:24.668Z,88.26
2017-11-27T02:01:24.655Z,87.31
2017-11-27T02:02:24.490Z,87.98
2017-11-27T02:03:24.637Z,87.4
2017-11-27T02:04:24.730Z,87.69
2017-11-27T02:05:24.716Z,87.78
2017-11-27T02:06:24.629Z,87.69
2017-11-27T02:07:24.600Z,87.69
2017-11-27T02:08:24.331Z,87.78
2017-11-27T02:09:24.317Z,87.98
2017-11-27T02:10:24.566Z,87.88
2017-11-27T02:11:24.556Z,87.78
2017-11-27T02:12:24.546Z,87.78
2017-11-27T02:13:24.536Z,87.78
2017-11-27T02:14:24.527Z,88.02
2017-11-27T02:15:24.516Z,87.92
2017-11-27T02:16:24.507Z,87.83
2017-11-27T02:17:24.501Z,87.64
2017-11-27T02:18:24.488Z,87.83
2017-11-27T02:19:24.476Z,88.02
2017-11-27T02:20:24.208Z,87.92
2017-11-27T02:21:24.455Z,87.92
2017-11-27T02:22:24.450Z,88.21
2017-11-27T02:23:24.439Z,88.11
2017-11-27T02:24:24.425Z,87.92
2017-11-27T02:25:24.413Z,88.4
2017-11-27T02:26:24.406Z,88.68
2017-11-27T02:27:24.137Z,88.87
2017-11-27T02:28:24.493Z,88.78
2017-11-27T02:29:24.218Z,89.44
2017-11-27T02:30:24.365Z,89.15
2017-11-27T02:31:24.374Z,89.53
2017-11-27T02:32:24.361Z,89.34
2017-11-27T02:33:24.339Z,89.34
2017-11-27T02:34:24.362Z,89.25
2017-11-27T02:35:24.330Z,89.15
2017-11-27T02:36:24.311Z,89.53
2017-11-27T02:37:24.296Z,89.82
2017-11-27T02:38:24.283Z,89.34
2017-11-27T02:39:24.276Z,89.82
2017-11-27T02:40:24.381Z,90.01
2017-11-27T02:41:24.276Z,89.82
2017-11-27T02:42:23.987Z,89.82
2017-11-27T02:43:24.241Z,90.2
2017-11-27T02:44:24.233Z,90.01
2017-11-27T02:45:23.958Z,90.2
2017-11-27T02:46:23.946Z,90.29
2017-11-27T02:47:23.936Z,90.39
2017-11-27T02:48:24.200Z,89.82
2017-11-27T02:49:24.171Z,89.44
2017-11-27T02:50:24.165Z,89.63
2017-11-27T02:51:24.153Z,89.44
2017-11-27T02:52:24.141Z,89.44
2017-11-27T02:53:24.136Z,89.63
2017-11-27T02:54:23.866Z,89.34
2017-11-27T02:55:23.854Z,89.34
2017-11-27T02:56:24.107Z,89.06
2017-11-27T02:57:23.833Z,89.53
2017-11-27T02:58:24.082Z,89.63
2017-11-27T02:59:24.075Z,89.63
2017-11-27T03:00:24.069Z,89.44
2017-11-27T03:01:23.794Z,89.44
2017-11-27T03:02:23.792Z,89.44
2017-11-27T03:03:24.034Z,89.63
2017-11-27T03:04:23.863Z,89.25
2017-11-27T03:05:24.015Z,89.34
2017-11-27T03:06:24.005Z,90.1
2017-11-27T03:07:23.834Z,89.91
2017-11-27T03:08:23.982Z,90.29
2017-11-27T03:09:23.985Z,90.86
2017-11-27T03:10:23.964Z,90.48
2017-11-27T03:11:23.699Z,90.48
2017-11-27T03:12:23.683Z,90.2
2017-11-27T03:13:23.931Z,89.82
2017-11-27T03:14:23.665Z,90.1
2017-11-27T03:15:23.912Z,90.58
2017-11-27T03:16:23.905Z,90.58
2017-11-27T03:17:23.993Z,90.67
2017-11-27T03:18:23.883Z,90.58
2017-11-27T03:19:23.613Z,90.77
2017-11-27T03:20:23.862Z,90.77
2017-11-27T03:21:23.853Z,91.43
2017-11-27T03:22:23.583Z,91.71
2017-11-27T03:23:23.575Z,91.62
2017-11-27T03:24:23.834Z,91.43
2017-11-27T03:25:23.811Z,91.52
2017-11-27T03:26:23.818Z,90.67
2017-11-27T03:27:23.535Z,90.39
2017-11-27T03:28:23.785Z,90.01
2017-11-27T03:29:23.772Z,90.01
2017-11-27T03:30:23.771Z,90.77
2017-11-27T03:31:23.494Z,90.67
2017-11-27T03:32:23.740Z,90.48
2017-11-27T03:33:23.835Z,90.67
2017-11-27T03:34:23.725Z,90.48
2017-11-27T03:35:23.453Z,91.43
2017-11-27T03:36:23.443Z,91.05
2017-11-27T03:37:23.796Z,91.81
2017-11-27T03:38:23.680Z,92
2017-11-27T03:39:23.672Z,91.81
2017-11-27T03:40:23.758Z,92
2017-11-27T03:41:23.753Z,91.52
2017-11-27T03:42:23.384Z,91.52
2017-11-27T03:43:23.629Z,91.62
2017-11-27T03:44:23.642Z,91.33
2017-11-27T03:45:23.611Z,91.52
2017-11-27T03:46:23.601Z,90.95
2017-11-27T03:47:23.592Z,90.58
2017-11-27T03:48:23.333Z,90.67
2017-11-27T03:49:23.578Z,90.67
2017-11-27T03:50:23.563Z,90.67
2017-11-27T03:51:23.562Z,90.67
2017-11-27T03:52:23.545Z,90.48
2017-11-27T03:53:23.532Z,90.01
2017-11-27T03:54:23.528Z,90.29
2017-11-27T03:55:23.509Z,90.2
2017-11-27T03:56:23.520Z,90.29
2017-11-27T03:57:23.490Z,90.01
2017-11-27T03:58:23.221Z,90.29
2017-11-27T03:59:23.469Z,90.77
2017-11-27T04:00:23.469Z,90.67
2017-11-27T04:01:23.486Z,90.48
2017-11-27T04:02:23.180Z,90.67
2017-11-27T04:03:23.429Z,90.77
2017-11-27T04:04:23.420Z,90.86
2017-11-27T04:05:23.423Z,91.62
2017-11-27T04:06:23.402Z,91.71
2017-11-27T04:07:23.400Z,92.09
2017-11-27T04:08:23.382Z,91.57
2017-11-27T04:09:23.470Z,92.19
2017-11-27T04:10:23.102Z,91.62
2017-11-27T04:11:23.351Z,92.04
2017-11-27T04:12:23.340Z,91.95
2017-11-27T04:13:23.070Z,91.95
2017-11-27T04:14:23.320Z,92.23
2017-11-27T04:15:23.309Z,92.61
2017-11-27T04:16:23.303Z,92.38
2017-11-27T04:17:23.387Z,92.99
2017-11-27T04:18:23.286Z,92.42
2017-11-27T04:19:23.282Z,92.61
2017-11-27T04:20:23.259Z,91.47
2017-11-27T04:21:23.251Z,90.81
2017-11-27T04:22:23.341Z,90.29
2017-11-27T04:23:23.230Z,90.39
2017-11-27T04:24:23.220Z,90.1
2017-11-27T04:25:23.211Z,89.82
2017-11-27T04:26:22.940Z,89.72
2017-11-27T04:27:23.216Z,89.44
2017-11-27T04:28:23.291Z,89.06
2017-11-27T04:29:23.180Z,88.96
2017-11-27T04:30:23.160Z,88.59
2017-11-27T04:31:22.995Z,88.78
2017-11-27T04:32:23.147Z,88.49
2017-11-27T04:33:22.871Z,88.02
2017-11-27T04:34:22.861Z,87.35
2017-11-27T04:35:23.109Z,87.35
2017-11-27T04:36:23.097Z,87.45
2017-11-27T04:37:23.102Z,87.45
2017-11-27T04:38:23.079Z,86.98
2017-11-27T04:39:22.810Z,87.07
2017-11-27T04:40:23.066Z,86.31
2017-11-27T04:41:23.048Z,86.22
2017-11-27T04:42:23.037Z,86.12
2017-11-27T04:43:23.031Z,85.84
2017-11-27T04:44:23.026Z,85.93
2017-11-27T04:45:23.009Z,85.65
2017-11-27T04:46:23.000Z,85.65
2017-11-27T04:47:22.988Z,85.93
2017-11-27T04:48:22.980Z,84.7
2017-11-27T04:49:22.973Z,84.8
2017-11-27T04:50:22.959Z,84.61
2017-11-27T04:51:22.952Z,84.89
2017-11-27T04:52:22.942Z,84.99
2017-11-27T04:53:22.933Z,84.61
2017-11-27T04:54:22.919Z,84.7
2017-11-27T04:55:22.658Z,85.08
2017-11-27T04:56:22.902Z,85.36
2017-11-27T04:57:22.898Z,85.36
2017-11-27T04:58:22.880Z,85.17
2017-11-27T04:59:22.871Z,85.17
2017-11-27T05:00:22.869Z,84.32
2017-11-27T05:01:22.849Z,84.8
2017-11-27T05:02:22.838Z,84.32
2017-11-27T05:03:22.831Z,84.13
2017-11-27T05:04:22.917Z,84.13
2017-11-27T05:05:22.815Z,84.7
2017-11-27T05:06:22.800Z,84.8
2017-11-27T05:07:22.892Z,83.94
2017-11-27T05:08:22.776Z,84.32
2017-11-27T05:09:22.771Z,84.32
2017-11-27T05:10:22.759Z,84.04
2017-11-27T05:11:22.748Z,84.42
2017-11-27T05:12:22.739Z,84.99
2017-11-27T05:13:22.469Z,84.89
2017-11-27T05:14:22.459Z,84.89
2017-11-27T05:15:22.709Z,84.8
2017-11-27T05:16:22.698Z,85.08
2017-11-27T05:17:22.432Z,83.94
2017-11-27T05:18:22.679Z,84.23
2017-11-27T05:19:22.671Z,84.32
2017-11-27T05:20:22.499Z,84.13
2017-11-27T05:21:22.649Z,84.32
2017-11-27T05:22:22.740Z,83.75
2017-11-27T05:23:22.393Z,84.04
2017-11-27T05:24:22.618Z,84.23
2017-11-27T05:25:22.448Z,84.32
2017-11-27T05:26:22.696Z,84.61
2017-11-27T05:27:22.330Z,84.32
2017-11-27T05:28:22.318Z,84.42
2017-11-27T05:29:22.309Z,83.75
2017-11-27T05:30:22.558Z,83.85
2017-11-27T05:31:22.550Z,84.13
2017-11-27T05:32:22.538Z,83.85
2017-11-27T05:33:22.266Z,84.13
2017-11-27T05:34:22.516Z,84.13
2017-11-27T05:35:22.606Z,83.85
2017-11-27T05:36:22.497Z,84.42
2017-11-27T05:37:22.488Z,84.42
2017-11-27T05:38:22.484Z,84.42
2017-11-27T05:39:22.207Z,84.42
2017-11-27T05:40:22.455Z,84.32
2017-11-27T05:41:22.545Z,84.32
2017-11-27T05:42:22.441Z,84.23
2017-11-27T05:43:22.434Z,84.23
2017-11-27T05:44:22.418Z,84.23
2017-11-27T05:45:22.403Z,84.23
2017-11-27T05:46:22.396Z,83.94
2017-11-27T05:47:22.385Z,84.04
2017-11-27T05:48:22.377Z,84.13
2017-11-27T05:49:22.365Z,84.04
2017-11-27T05:50:22.353Z,84.99
2017-11-27T05:51:22.346Z,84.7
2017-11-27T05:52:22.336Z,85.08
2017-11-27T05:53:22.068Z,84.23
2017-11-27T05:54:22.068Z,84.61
2017-11-27T05:55:22.301Z,85.08
2017-11-27T05:56:22.295Z,84.42
2017-11-27T05:57:22.381Z,84.89
2017-11-27T05:58:22.272Z,84.42
2017-11-27T05:59:22.262Z,84.61
2017-11-27T06:00:22.249Z,84.42
2017-11-27T06:01:22.245Z,84.61
2017-11-27T06:02:22.226Z,84.7
2017-11-27T06:03:22.213Z,84.51
2017-11-27T06:04:22.205Z,84.99
2017-11-27T06:05:21.940Z,85.08
2017-11-27T06:06:22.029Z,84.7
2017-11-27T06:07:22.178Z,84.13
2017-11-27T06:08:22.164Z,84.7
2017-11-27T06:09:22.158Z,84.42
2017-11-27T06:10:21.887Z,84.61
2017-11-27T06:11:22.145Z,84.32
2017-11-27T06:12:22.126Z,84.13
2017-11-27T06:13:22.123Z,84.61
2017-11-27T06:14:22.106Z,83.94
2017-11-27T06:15:22.097Z,83.94
2017-11-27T06:16:22.087Z,83.85
2017-11-27T06:17:22.075Z,84.04
2017-11-27T06:18:22.065Z,83.85
2017-11-27T06:19:22.058Z,83.85
2017-11-27T06:20:22.079Z,83.75
2017-11-27T06:21:22.132Z,83.85
2017-11-27T06:22:22.124Z,83.75
2017-11-27T06:23:22.014Z,83.56
2017-11-27T06:24:22.013Z,83.37
2017-11-27T06:25:21.997Z,83.47
2017-11-27T06:26:21.987Z,83.37
2017-11-27T06:27:21.976Z,83.56
2017-11-27T06:28:22.063Z,83.28
2017-11-27T06:29:21.697Z,83.47
2017-11-27T06:30:21.688Z,83.66
2017-11-27T06:31:21.931Z,83.56
2017-11-27T06:32:22.023Z,83.94
2017-11-27T06:33:21.916Z,83.85
2017-11-27T06:34:21.918Z,84.51
2017-11-27T06:35:21.904Z,84.23
2017-11-27T06:36:21.625Z,83.85
2017-11-27T06:37:21.874Z,83.56
2017-11-27T06:38:21.864Z,83.85
2017-11-27T06:39:21.596Z,84.04
2017-11-27T06:40:21.586Z,83.75
2017-11-27T06:41:21.835Z,83.85
2017-11-27T06:42:21.927Z,84.13
2017-11-27T06:43:21.846Z,83.85
2017-11-27T06:44:21.808Z,83.47
2017-11-27T06:45:21.535Z,83.56
2017-11-27T06:46:21.787Z,83.47
2017-11-27T06:47:21.872Z,83.75
2017-11-27T06:48:21.763Z,83.47
2017-11-27T06:49:21.754Z,83.75
2017-11-27T06:50:21.741Z,83
2017-11-27T06:51:21.739Z,83.18
2017-11-27T06:52:21.820Z,82.9
2017-11-27T06:53:21.715Z,83
2017-11-27T06:54:21.701Z,83.18
2017-11-27T06:55:21.702Z,82.71
2017-11-27T06:56:21.689Z,82.71
2017-11-27T06:57:21.673Z,82.33
2017-11-27T06:58:21.402Z,82.52
2017-11-27T06:59:21.654Z,82.9
2017-11-27T07:00:21.385Z,82.71
2017-11-27T07:01:21.630Z,82.52
2017-11-27T07:02:21.363Z,82.9
2017-11-27T07:03:21.613Z,82.71
2017-11-27T07:04:21.604Z,82.52
2017-11-27T07:05:21.589Z,83
2017-11-27T07:06:21.578Z,82.81
2017-11-27T07:07:21.573Z,83
2017-11-27T07:08:21.561Z,83
2017-11-27T07:09:21.551Z,82.81
2017-11-27T07:10:21.546Z,83
2017-11-27T07:11:21.530Z,82.9
2017-11-27T07:12:21.522Z,83
2017-11-27T07:13:21.258Z,82.9
2017-11-27T07:14:21.509Z,82.52
2017-11-27T07:15:21.601Z,82.43
2017-11-27T07:16:21.225Z,82.71
2017-11-27T07:17:21.478Z,82.62
2017-11-27T07:18:21.207Z,82.52
2017-11-27T07:19:21.456Z,82.24
2017-11-27T07:20:21.456Z,82.24
2017-11-27T07:21:21.435Z,82.81
2017-11-27T07:22:21.168Z,82.52
2017-11-27T07:23:21.159Z,82.62
2017-11-27T07:24:21.404Z,82.71
2017-11-27T07:25:21.396Z,82.9
2017-11-27T07:26:21.489Z,82.81
2017-11-27T07:27:21.373Z,82.81
2017-11-27T07:28:21.367Z,83.18
2017-11-27T07:29:21.096Z,82.71
2017-11-27T07:30:21.361Z,82.62
2017-11-27T07:31:21.335Z,82.9
2017-11-27T07:32:21.330Z,82.81
2017-11-27T07:33:21.052Z,82.9
2017-11-27T07:34:21.299Z,82.52
2017-11-27T07:35:21.291Z,82.43
2017-11-27T07:36:21.298Z,82.9
2017-11-27T07:37:21.270Z,82.9
2017-11-27T07:38:21.001Z,83
2017-11-27T07:39:21.247Z,82.9
2017-11-27T07:40:21.241Z,82.33
2017-11-27T07:41:20.971Z,82.62
2017-11-27T07:42:21.221Z,82.05
2017-11-27T07:43:21.209Z,81.95
2017-11-27T07:44:21.198Z,82.05
2017-11-27T07:45:21.189Z,82.14
2017-11-27T07:46:21.176Z,81.67
2017-11-27T07:47:21.175Z,81.67
2017-11-27T07:48:21.157Z,81.48
2017-11-27T07:49:21.152Z,81.57
2017-11-27T07:50:20.880Z,81.2
2017-11-27T07:51:21.136Z,81.01
2017-11-27T07:52:21.137Z,80.91
2017-11-27T07:53:21.108Z,80.91
2017-11-27T07:54:21.100Z,80.82
2017-11-27T07:55:21.092Z,81.2
2017-11-27T07:56:20.817Z,81.1
2017-11-27T07:57:21.166Z,81.01
2017-11-27T07:58:20.897Z,81.01
2017-11-27T07:59:20.785Z,81.1
2017-11-27T08:00:21.039Z,81.2
2017-11-27T08:01:21.031Z,81.2
2017-11-27T08:02:20.756Z,80.82
2017-11-27T08:03:20.747Z,80.91
2017-11-27T08:04:20.992Z,81.1
2017-11-27T08:05:20.724Z,80.34
2017-11-27T08:06:20.972Z,80.34
2017-11-27T08:07:20.703Z,79.96
2017-11-27T08:08:20.695Z,79.58
2017-11-27T08:09:20.946Z,79.39
2017-11-27T08:10:20.928Z,79.21
2017-11-27T08:11:20.925Z,78.83
2017-11-27T08:12:20.914Z,78.45
2017-11-27T08:13:20.904Z,78.35
2017-11-27T08:14:20.894Z,78.16
2017-11-27T08:15:20.896Z,77.69
2017-11-27T08:16:20.868Z,77.97
2017-11-27T08:17:20.602Z,77.59
2017-11-27T08:18:20.590Z,76.93
2017-11-27T08:19:20.842Z,76.46
2017-11-27T08:20:20.571Z,76.84
2017-11-27T08:21:20.825Z,76.84
2017-11-27T08:22:20.810Z,76.74
2017-11-27T08:23:20.800Z,77.03
2017-11-27T08:24:20.889Z,76.93
2017-11-27T08:25:20.776Z,76.55
2017-11-27T08:26:20.775Z,76.17
2017-11-27T08:27:20.758Z,75.7
2017-11-27T08:28:20.747Z,75.6
2017-11-27T08:29:20.734Z,75.6
2017-11-27T08:30:20.730Z,75.79
2017-11-27T08:31:20.721Z,76.08
2017-11-27T08:32:20.709Z,76.17
2017-11-27T08:33:20.696Z,76.17
2017-11-27T08:34:20.684Z,76.08
2017-11-27T08:35:20.674Z,76.36
2017-11-27T08:36:20.667Z,76.46
2017-11-27T08:37:20.653Z,76.93
2017-11-27T08:38:20.642Z,76.84
2017-11-27T08:39:20.640Z,77.03
2017-11-27T08:40:20.724Z,76.93
2017-11-27T08:41:20.612Z,77.12
2017-11-27T08:42:20.601Z,76.65
2017-11-27T08:43:20.692Z,76.93
2017-11-27T08:44:20.582Z,76.36
2017-11-27T08:45:20.315Z,76.74
2017-11-27T08:46:20.563Z,76.65
2017-11-27T08:47:20.292Z,76.65
2017-11-27T08:48:20.542Z,76.84
2017-11-27T08:49:20.527Z,76.31
2017-11-27T08:50:20.517Z,75.93
2017-11-27T08:51:20.508Z,75.64
2017-11-27T08:52:20.500Z,75.79
2017-11-27T08:53:20.593Z,75.93
2017-11-27T08:54:20.479Z,75.89
2017-11-27T08:55:20.465Z,75.84
2017-11-27T08:56:20.462Z,75.93
2017-11-27T08:57:20.450Z,76.31
2017-11-27T08:58:20.287Z,76.17
2017-11-27T08:59:20.427Z,76.12
2017-11-27T09:00:20.417Z,76.03
2017-11-27T09:01:20.403Z,75.84
2017-11-27T09:02:20.398Z,75.84
2017-11-27T09:03:20.385Z,76.03
2017-11-27T09:04:20.373Z,76.03
2017-11-27T09:05:20.365Z,76.31
2017-11-27T09:06:20.100Z,76.5
2017-11-27T09:07:20.343Z,76.5
2017-11-27T09:08:20.333Z,75.45
2017-11-27T09:09:20.324Z,75.45
2017-11-27T09:10:20.314Z,75.17
2017-11-27T09:11:20.302Z,74.98
2017-11-27T09:12:20.306Z,74.79
2017-11-27T09:13:20.025Z,75.07
2017-11-27T09:14:20.015Z,73.94
2017-11-27T09:15:20.260Z,74.13
2017-11-27T09:16:20.247Z,73.56
2017-11-27T09:17:20.239Z,73.56
2017-11-27T09:18:20.244Z,74.32
2017-11-27T09:19:19.960Z,74.13
2017-11-27T09:20:19.948Z,74.88
2017-11-27T09:21:19.939Z,74.41
2017-11-27T09:22:19.927Z,74.98
2017-11-27T09:23:20.278Z,74.6
2017-11-27T09:24:20.164Z,74.51
2017-11-27T09:25:20.158Z,74.69
2017-11-27T09:26:20.152Z,74.22
2017-11-27T09:27:20.157Z,73.94
2017-11-27T09:28:20.152Z,73.37
2017-11-27T09:29:19.855Z,74.22
2017-11-27T09:30:20.104Z,73.84
2017-11-27T09:31:20.094Z,73.18
2017-11-27T09:32:20.080Z,72.71
2017-11-27T09:33:20.075Z,72.23
2017-11-27T09:34:20.070Z,71.85
2017-11-27T09:35:20.054Z,71.76
2017-11-27T09:36:20.045Z,72.23
2017-11-27T09:37:20.035Z,71.66
2017-11-27T09:38:20.018Z,71.66
2017-11-27T09:39:20.012Z,72.14
2017-11-27T09:40:20.002Z,71.85
2017-11-27T09:41:19.995Z,71.66
2017-11-27T09:42:19.721Z,72.23
2017-11-27T09:43:19.982Z,72.23
2017-11-27T09:44:19.709Z,71.76
2017-11-27T09:45:19.952Z,72.04
2017-11-27T09:46:19.944Z,72.52
2017-11-27T09:47:19.929Z,72.04
2017-11-27T09:48:19.916Z,71.85
2017-11-27T09:49:19.910Z,71.19
2017-11-27T09:50:19.998Z,71.28
2017-11-27T09:51:19.885Z,71.47
2017-11-27T09:52:19.619Z,71.47
2017-11-27T09:53:19.607Z,71.09
2017-11-27T09:54:19.855Z,71.28
2017-11-27T09:55:19.848Z,71.19
2017-11-27T09:56:19.836Z,71
2017-11-27T09:57:19.830Z,71.47
2017-11-27T09:58:19.654Z,71.28
2017-11-27T09:59:19.810Z,71.09
2017-11-27T10:00:19.797Z,71.28
2017-11-27T10:01:19.782Z,71.57
2017-11-27T10:02:19.514Z,71.28
2017-11-27T10:03:19.864Z,71.47
2017-11-27T10:04:19.495Z,71.38
2017-11-27T10:05:19.743Z,71.47
2017-11-27T10:06:19.732Z,71.57
2017-11-27T10:07:19.720Z,71.85
2017-11-27T10:08:19.811Z,72.04
2017-11-27T10:09:19.715Z,72.23
2017-11-27T10:10:19.433Z,72.42
2017-11-27T10:11:19.678Z,72.23
2017-11-27T10:12:19.670Z,72.33
2017-11-27T10:13:19.402Z,72.33
2017-11-27T10:14:19.648Z,71.57
2017-11-27T10:15:19.381Z,72.04
2017-11-27T10:16:19.370Z,71.47
2017-11-27T10:17:19.361Z,72.04
2017-11-27T10:18:19.604Z,71.95
2017-11-27T10:19:19.620Z,72.52
2017-11-27T10:20:19.328Z,72.33
2017-11-27T10:21:19.589Z,72.42
2017-11-27T10:22:19.576Z,72.89
2017-11-27T10:23:19.560Z,72.8
2017-11-27T10:24:19.548Z,71.76
2017-11-27T10:25:19.537Z,71.76
2017-11-27T10:26:19.523Z,72.14
2017-11-27T10:27:19.514Z,72.14
2017-11-27T10:28:19.506Z,71.85
2017-11-27T10:29:19.491Z,71.19
2017-11-27T10:30:19.484Z,71.38
2017-11-27T10:31:19.571Z,71.66
2017-11-27T10:32:19.460Z,71.76
2017-11-27T10:33:19.457Z,72.23
2017-11-27T10:34:19.444Z,71.95
2017-11-27T10:35:19.432Z,71.76
2017-11-27T10:36:19.522Z,72.14
2017-11-27T10:37:19.151Z,72.33
2017-11-27T10:38:19.140Z,72.14
2017-11-27T10:39:19.132Z,72.36
2017-11-27T10:40:19.398Z,71.51
2017-11-27T10:41:19.371Z,71.89
2017-11-27T10:42:19.360Z,71.7
2017-11-27T10:43:19.100Z,71.41
2017-11-27T10:44:19.337Z,70.75
2017-11-27T10:45:19.167Z,70.56
2017-11-27T10:46:19.320Z,70.65
2017-11-27T10:47:19.309Z,70.37
2017-11-27T10:48:19.295Z,70.94
2017-11-27T10:49:19.026Z,70.75
2017-11-27T10:50:19.277Z,70.65
2017-11-27T10:51:19.261Z,70.75
2017-11-27T10:52:19.254Z,70.56
2017-11-27T10:53:18.985Z,69.65
2017-11-27T10:54:19.241Z,69.55
2017-11-27T10:55:19.222Z,69.17
2017-11-27T10:56:19.233Z,68.48
2017-11-27T10:57:19.200Z,67.81
2017-11-27T10:58:19.195Z,68.19
2017-11-27T10:59:19.181Z,67.62
2017-11-27T11:00:19.173Z,67.81
2017-11-27T11:01:19.160Z,66.77
2017-11-27T11:02:18.889Z,66.67
2017-11-27T11:03:19.143Z,66.1
2017-11-27T11:04:18.870Z,66.39
2017-11-27T11:05:19.118Z,66.67
2017-11-27T11:06:19.108Z,66.67
2017-11-27T11:07:19.096Z,66.67
2017-11-27T11:08:19.088Z,66.48
2017-11-27T11:09:19.084Z,66.86
2017-11-27T11:10:18.807Z,66.77
2017-11-27T11:11:19.056Z,67.14
2017-11-27T11:12:18.785Z,66.58
2017-11-27T11:13:19.033Z,67.14
2017-11-27T11:14:19.024Z,67.14
2017-11-27T11:15:19.012Z,67.05
2017-11-27T11:16:19.006Z,66.77
2017-11-27T11:17:18.991Z,66.58
2017-11-27T11:18:18.985Z,66.77
2017-11-27T11:19:18.974Z,66.58
2017-11-27T11:20:18.972Z,66.86
2017-11-27T11:21:19.055Z,66.86
2017-11-27T11:22:18.792Z,67.05
2017-11-27T11:23:18.672Z,66.86
2017-11-27T11:24:18.930Z,67.62
2017-11-27T11:25:18.909Z,66.39
2017-11-27T11:26:18.650Z,66.39
2017-11-27T11:27:18.892Z,66.1
2017-11-27T11:28:18.884Z,66.1
2017-11-27T11:29:18.870Z,66.2
2017-11-27T11:30:18.857Z,65.82
2017-11-27T11:31:18.849Z,66.01
2017-11-27T11:32:18.836Z,66.39
2017-11-27T11:33:18.824Z,66.39
2017-11-27T11:34:18.816Z,65.44
2017-11-27T11:35:18.815Z,65.34
2017-11-27T11:36:18.802Z,65.91
2017-11-27T11:37:18.527Z,66.29
2017-11-27T11:38:18.777Z,66.39
2017-11-27T11:39:18.508Z,65.72
2017-11-27T11:40:20.764Z,65.44
2017-11-27T11:41:18.744Z,65.91
2017-11-27T11:42:18.735Z,66.1
2017-11-27T11:43:18.464Z,66.29
2017-11-27T11:44:18.711Z,66.77
2017-11-27T11:45:18.697Z,66.77
2017-11-27T11:46:18.435Z,67.33
2017-11-27T11:47:18.683Z,66.96
2017-11-27T11:48:18.674Z,66.86
2017-11-27T11:49:18.764Z,66.67
2017-11-27T11:50:18.661Z,66.39
2017-11-27T11:51:18.380Z,65.53
2017-11-27T11:52:18.639Z,64.87
2017-11-27T11:53:18.620Z,64.78
2017-11-27T11:54:18.618Z,64.49
2017-11-27T11:55:18.695Z,64.4
2017-11-27T11:56:18.428Z,65.06
2017-11-27T11:57:18.575Z,64.78
2017-11-27T11:58:18.566Z,64.59
2017-11-27T11:59:18.556Z,64.78
2017-11-27T12:00:18.545Z,64.3
2017-11-27T12:01:18.538Z,64.05
2017-11-27T12:02:18.535Z,64.05
2017-11-27T12:03:18.515Z,64.05
2017-11-27T12:04:18.510Z,63.86
2017-11-27T12:05:18.234Z,63.86
2017-11-27T12:06:18.231Z,64.05
2017-11-27T12:07:18.472Z,63.2
2017-11-27T12:08:18.203Z,62.72
2017-11-27T12:09:18.550Z,61.96
2017-11-27T12:10:18.451Z,60.92
2017-11-27T12:11:18.539Z,60.53
2017-11-27T12:12:18.419Z,61.11
2017-11-27T12:13:18.418Z,61.2
2017-11-27T12:14:18.397Z,61.01
2017-11-27T12:15:18.493Z,61.11
2017-11-27T12:16:18.377Z,61.11
2017-11-27T12:17:18.370Z,60.25
2017-11-27T12:18:18.100Z,59.78
2017-11-27T12:19:18.495Z,59.78
2017-11-27T12:20:18.336Z,60.35
2017-11-27T12:21:18.335Z,60.35
2017-11-27T12:22:18.315Z,60.25
2017-11-27T12:23:18.047Z,59.88
2017-11-27T12:24:18.294Z,60.25
2017-11-27T12:25:18.284Z,60.53
2017-11-27T12:26:18.275Z,60.53
2017-11-27T12:27:18.005Z,60.25
2017-11-27T12:28:18.262Z,59.88
2017-11-27T12:29:18.241Z,59.11
2017-11-27T12:30:18.335Z,59.78
2017-11-27T12:31:17.964Z,59.78
2017-11-27T12:32:18.214Z,59.59
2017-11-27T12:33:18.208Z,59.59
2017-11-27T12:34:18.291Z,59.88
2017-11-27T12:35:18.185Z,59.11
2017-11-27T12:36:18.276Z,59.02
2017-11-27T12:37:18.165Z,58.73
2017-11-27T12:38:18.151Z,58.73
2017-11-27T12:39:18.139Z,58.64
2017-11-27T12:40:17.871Z,59.49
2017-11-27T12:41:18.120Z,58.83
2017-11-27T12:42:18.106Z,59.3
2017-11-27T12:43:18.102Z,58.36
2017-11-27T12:44:18.095Z,59.02
2017-11-27T12:45:18.082Z,58.83
2017-11-27T12:46:18.269Z,59.4
2017-11-27T12:47:18.060Z,58.83
2017-11-27T12:48:18.048Z,59.3
2017-11-27T12:49:18.046Z,59.3
2017-11-27T12:50:18.135Z,59.02
2017-11-27T12:51:18.018Z,59.49
2017-11-27T12:52:18.004Z,60.35
2017-11-27T12:53:17.996Z,60.82
2017-11-27T12:54:17.986Z,60.25
2017-11-27T12:55:17.973Z,59.21
2017-11-27T12:56:17.963Z,59.3